createdAt,value
2018-01-22T00:01:19.177Z,24.37
2018-01-22T00:03:47.117Z,20.53
2018-01-22T00:06:15.140Z,23.20
2018-01-22T00:08:43.213Z,24.33
2018-01-22T00:11:11.157Z,20.67
2018-01-22T00:13:39.087Z,24.40
2018-01-22T00:16:07.143Z,21.73
2018-01-22T00:18:35.043Z,24.10
2018-01-22T00:21:02.969Z,24.57
2018-01-22T00:23:31.023Z,23.07
2018-01-22T00:25:59.021Z,23.27
2018-01-22T00:28:26.953Z,22.73
2018-01-22T00:30:55.024Z,25.63
2018-01-22T00:33:22.967Z,22.63
2018-01-22T00:35:51.629Z,21.30
2018-01-22T00:38:19.701Z,24.83
2018-01-22T00:40:47.643Z,24.30
2018-01-22T00:43:15.579Z,24.00
2018-01-22T00:45:44.425Z,24.60
2018-01-22T00:48:12.363Z,27.63
2018-01-22T00:50:40.287Z,24.00
2018-01-22T00:53:08.447Z,25.03
2018-01-22T00:55:36.379Z,26.03
2018-01-22T00:58:04.329Z,22.80
2018-01-22T01:00:32.387Z,23.07
2018-01-22T01:03:01.082Z,24.80
2018-01-22T01:05:29.824Z,27.00
2018-01-22T01:07:57.890Z,24.73
2018-01-22T01:10:25.865Z,23.13
2018-01-22T01:12:53.814Z,25.27
2018-01-22T01:15:22.025Z,25.67
2018-01-22T01:17:49.943Z,25.47
2018-01-22T01:20:17.902Z,23.90
2018-01-22T01:22:46.709Z,24.57
2018-01-22T01:25:14.639Z,24.30
2018-01-22T01:27:42.587Z,25.47
2018-01-22T01:30:10.639Z,24.90
2018-01-22T01:32:38.621Z,25.30
2018-01-22T01:35:06.576Z,23.63
2018-01-22T01:37:34.656Z,27.60
2018-01-22T01:40:02.599Z,24.37
2018-01-22T01:42:30.590Z,24.90
2018-01-22T01:44:58.643Z,25.60
2018-01-22T01:47:26.581Z,23.07
2018-01-22T01:49:55.259Z,25.30
2018-01-22T01:52:23.325Z,25.60
2018-01-22T01:54:51.391Z,24.67
2018-01-22T01:57:19.453Z,23.07
2018-01-22T01:59:47.515Z,25.27
2018-01-22T02:02:15.449Z,25.00
2018-01-22T02:04:44.162Z,25.77
2018-01-22T02:07:12.293Z,24.07
2018-01-22T02:09:40.217Z,26.10
2018-01-22T02:12:08.159Z,25.30
2018-01-22T02:14:36.227Z,24.87
2018-01-22T02:17:04.950Z,25.17
2018-01-22T02:19:32.913Z,25.83
2018-01-22T02:22:01.037Z,25.80
2018-01-22T02:24:28.986Z,26.43
2018-01-22T02:26:56.947Z,28.17
2018-01-22T02:29:25.023Z,26.93
2018-01-22T02:31:52.970Z,25.77
2018-01-22T02:34:20.934Z,25.27
2018-01-22T02:36:49.058Z,27.17
2018-01-22T02:39:17.003Z,26.80
2018-01-22T02:41:44.923Z,25.70
2018-01-22T02:44:13.787Z,25.00
2018-01-22T02:46:41.861Z,27.80
2018-01-22T02:49:09.825Z,23.60
2018-01-22T02:51:37.901Z,23.33
2018-01-22T02:54:05.813Z,30.40
2018-01-22T02:56:33.953Z,24.47
2018-01-22T02:59:02.020Z,27.27
2018-01-22T03:01:30.059Z,24.23
2018-01-22T03:03:57.981Z,27.83
2018-01-22T03:06:26.926Z,24.17
2018-01-22T03:08:54.850Z,25.23
2018-01-22T03:11:23.507Z,25.93
2018-01-22T03:13:51.691Z,27.83
2018-01-22T03:16:19.770Z,27.37
2018-01-22T03:18:48.473Z,24.80
2018-01-22T03:21:17.264Z,23.60
2018-01-22T03:23:45.945Z,24.30
2018-01-22T03:26:14.623Z,24.23
2018-01-22T03:28:43.455Z,25.80
2018-01-22T03:31:11.413Z,25.60
2018-01-22T03:33:39.349Z,25.90
2018-01-22T03:36:07.527Z,25.23
2018-01-22T03:38:36.301Z,23.13
2018-01-22T03:41:04.253Z,23.87
2018-01-22T03:43:32.333Z,23.80
2018-01-22T03:46:00.393Z,24.40
2018-01-22T03:48:28.333Z,26.53
2018-01-22T03:50:56.393Z,25.90
2018-01-22T03:53:29.714Z,26.00
2018-01-22T03:55:58.805Z,26.60
2018-01-22T03:58:27.901Z,27.23
2018-01-22T04:00:55.835Z,23.63
2018-01-22T04:03:24.651Z,24.53
2018-01-22T04:05:52.579Z,26.93
2018-01-22T04:08:20.525Z,24.23
2018-01-22T04:10:48.578Z,24.13
2018-01-22T04:13:16.485Z,25.60
2018-01-22T04:15:44.437Z,24.00
2018-01-22T04:18:12.503Z,24.17
2018-01-22T04:20:40.433Z,24.47
2018-01-22T04:23:09.109Z,25.30
2018-01-22T04:25:37.951Z,23.63
2018-01-22T04:28:05.897Z,22.93
2018-01-22T04:30:33.824Z,23.07
2018-01-22T04:33:01.879Z,27.40
2018-01-22T04:35:29.927Z,23.20
2018-01-22T04:37:57.861Z,27.40
2018-01-22T04:40:26.655Z,26.97
2018-01-22T04:42:55.339Z,23.43
2018-01-22T04:45:24.009Z,25.07
2018-01-22T04:47:52.047Z,24.43
2018-01-22T04:50:19.994Z,26.33
2018-01-22T04:52:47.922Z,26.63
2018-01-22T04:55:16.728Z,25.20
2018-01-22T04:57:45.413Z,25.80
2018-01-22T05:00:14.235Z,26.70
2018-01-22T05:02:42.413Z,25.60
2018-01-22T05:05:10.446Z,27.23
2018-01-22T05:07:39.133Z,26.07
2018-01-22T05:10:07.219Z,27.97
2018-01-22T05:12:35.876Z,26.90
2018-01-22T05:15:03.865Z,26.57
2018-01-22T05:17:32.671Z,25.30
2018-01-22T05:20:00.577Z,27.70
2018-01-22T05:22:28.508Z,25.50
2018-01-22T05:24:56.559Z,26.90
2018-01-22T05:27:24.766Z,26.90
2018-01-22T05:29:52.743Z,25.23
2018-01-22T05:32:20.809Z,25.93
2018-01-22T05:34:48.721Z,27.70
2018-01-22T05:37:16.805Z,27.80
2018-01-22T05:39:44.859Z,27.00
2018-01-22T05:42:12.779Z,27.10
2018-01-22T05:44:41.461Z,25.00
2018-01-22T05:47:10.311Z,26.90
2018-01-22T05:49:38.225Z,23.80
2018-01-22T05:52:06.893Z,27.90
2018-01-22T05:54:35.709Z,25.07
2018-01-22T05:57:03.851Z,23.93
2018-01-22T05:59:31.903Z,25.67
2018-01-22T06:02:00.135Z,27.47
2018-01-22T06:04:28.049Z,26.23
2018-01-22T06:06:56.003Z,24.93
2018-01-22T06:09:24.057Z,26.37
2018-01-22T06:11:52.059Z,25.23
2018-01-22T06:14:20.087Z,26.57
2018-01-22T06:16:48.215Z,27.73
2018-01-22T06:19:16.146Z,27.27
2018-01-22T06:21:44.241Z,25.73
2018-01-22T06:24:12.295Z,24.73
2018-01-22T06:26:40.298Z,26.40
2018-01-22T06:29:08.385Z,22.60
2018-01-22T06:31:36.423Z,25.13
2018-01-22T06:34:04.361Z,27.93
2018-01-22T06:36:32.369Z,27.63
2018-01-22T06:39:00.401Z,23.70
2018-01-22T06:41:29.076Z,25.97
2018-01-22T06:43:57.743Z,23.50
2018-01-22T06:46:25.903Z,26.40
2018-01-22T06:48:53.823Z,23.03
2018-01-22T06:51:21.735Z,24.37
2018-01-22T06:53:49.838Z,25.03
2018-01-22T06:56:17.769Z,22.47
2018-01-22T06:58:45.798Z,25.90
2018-01-22T07:01:14.583Z,24.40
2018-01-22T07:03:43.394Z,23.23
2018-01-22T07:06:11.379Z,24.90
2018-01-22T07:08:39.456Z,23.97
2018-01-22T07:11:07.380Z,25.90
2018-01-22T07:13:36.036Z,23.13
2018-01-22T07:16:04.103Z,23.33
2018-01-22T07:18:32.021Z,25.90
2018-01-22T07:21:00.711Z,25.37
2018-01-22T07:23:28.747Z,25.70
2018-01-22T07:25:56.845Z,23.30
2018-01-22T07:28:30.179Z,23.57
2018-01-22T07:30:59.354Z,21.77
2018-01-22T07:33:32.201Z,22.70
2018-01-22T07:36:01.231Z,25.37
2018-01-22T07:38:29.895Z,22.13
2018-01-22T07:41:01.228Z,22.13
2018-01-22T07:43:29.819Z,21.40
2018-01-22T07:45:57.833Z,22.90
2018-01-22T07:48:25.769Z,21.60
2018-01-22T07:50:53.723Z,22.90
2018-01-22T07:53:21.658Z,22.37
2018-01-22T07:55:49.661Z,22.40
2018-01-22T07:58:17.628Z,20.80
2018-01-22T08:00:45.551Z,22.10
2018-01-22T08:03:13.486Z,20.50
2018-01-22T08:05:41.704Z,19.60
2018-01-22T08:08:09.607Z,17.97
2018-01-22T08:10:37.541Z,21.17
2018-01-22T08:13:05.587Z,18.90
2018-01-22T08:15:34.246Z,19.83
2018-01-22T08:18:02.181Z,22.10
2018-01-22T08:20:30.215Z,21.53
2018-01-22T08:22:58.898Z,19.97
2018-01-22T08:25:27.554Z,22.87
2018-01-22T08:27:55.611Z,22.53
2018-01-22T08:30:23.569Z,23.60
2018-01-22T08:32:51.506Z,20.77
2018-01-22T08:35:20.321Z,21.57
2018-01-22T08:37:48.247Z,21.03
2018-01-22T08:40:16.191Z,20.07
2018-01-22T08:42:44.254Z,21.80
2018-01-22T08:45:12.176Z,20.70
2018-01-22T08:47:40.839Z,20.93
2018-01-22T08:50:08.891Z,19.73
2018-01-22T08:52:36.853Z,20.20
2018-01-22T08:55:04.786Z,20.30
2018-01-22T08:57:32.842Z,19.70
2018-01-22T09:00:01.519Z,18.53
2018-01-22T09:02:29.427Z,19.30
2018-01-22T09:04:57.485Z,16.83
2018-01-22T09:07:25.591Z,16.27
2018-01-22T09:09:53.491Z,16.27
2018-01-22T09:12:21.529Z,18.83
2018-01-22T09:14:49.444Z,16.47
2018-01-22T09:17:17.490Z,17.40
2018-01-22T09:19:45.540Z,16.77
2018-01-22T09:22:13.466Z,15.43
2018-01-22T09:24:42.147Z,16.43
2018-01-22T09:27:11.013Z,16.07
2018-01-22T09:29:38.950Z,16.10
2018-01-22T09:32:06.893Z,16.10
2018-01-22T09:34:35.680Z,14.80
2018-01-22T09:37:04.407Z,14.17
2018-01-22T09:39:32.341Z,17.30
2018-01-22T09:42:01.141Z,16.07
2018-01-22T09:44:29.078Z,15.03
2018-01-22T09:46:57.129Z,16.77
2018-01-22T09:49:25.221Z,17.03
2018-01-22T09:51:53.193Z,17.57
2018-01-22T09:54:21.150Z,17.07
2018-01-22T09:56:49.357Z,17.30
2018-01-22T09:59:18.003Z,14.50
2018-01-22T10:01:45.929Z,15.80
2018-01-22T10:04:13.973Z,17.23
2018-01-22T10:06:41.933Z,16.10
2018-01-22T10:09:09.990Z,18.40
2018-01-22T10:11:38.102Z,19.60
2018-01-22T10:14:06.806Z,19.30
2018-01-22T10:16:34.795Z,18.60
2018-01-22T10:19:02.869Z,17.87
2018-01-22T10:21:30.801Z,16.53
2018-01-22T10:23:59.493Z,19.67
2018-01-22T10:26:28.353Z,21.00
2018-01-22T10:28:56.297Z,20.97
2018-01-22T10:31:24.216Z,19.50
2018-01-22T10:33:53.023Z,20.07
2018-01-22T10:36:21.787Z,17.93
2018-01-22T10:38:50.480Z,18.80
2018-01-22T10:41:19.281Z,14.70
2018-01-22T10:43:47.992Z,15.57
2018-01-22T10:46:15.911Z,14.33
2018-01-22T10:48:43.983Z,14.00
2018-01-22T10:51:11.887Z,16.53
2018-01-22T10:53:40.555Z,17.17
2018-01-22T10:56:09.365Z,16.17
2018-01-22T10:58:37.333Z,17.13
2018-01-22T11:01:06.033Z,13.67
2018-01-22T11:03:34.101Z,13.63
2018-01-22T11:06:02.151Z,14.50
2018-01-22T11:08:30.807Z,16.20
2018-01-22T11:10:59.036Z,14.80
2018-01-22T11:13:26.998Z,14.07
2018-01-22T11:16:01.479Z,15.30
2018-01-22T11:18:29.416Z,15.33
2018-01-22T11:20:57.338Z,14.10
2018-01-22T11:23:25.409Z,16.20
2018-01-22T11:25:53.332Z,15.07
2018-01-22T11:28:21.311Z,14.47
2018-01-22T11:30:49.358Z,14.90
2018-01-22T11:33:17.287Z,15.80
2018-01-22T11:35:45.203Z,18.83
2018-01-22T11:38:13.257Z,14.97
2018-01-22T11:40:41.933Z,12.73
2018-01-22T11:43:10.625Z,17.13
2018-01-22T11:45:39.421Z,15.13
2018-01-22T11:48:08.110Z,17.57
2018-01-22T11:50:36.055Z,17.77
2018-01-22T11:53:04.122Z,20.83
2018-01-22T11:55:32.229Z,15.73
2018-01-22T11:58:00.143Z,18.07
2018-01-22T12:00:28.218Z,19.77
2018-01-22T12:02:56.155Z,20.43
2018-01-22T12:05:24.100Z,20.77
2018-01-22T12:07:52.901Z,18.70
2018-01-22T12:10:20.831Z,19.37
2018-01-22T12:12:48.989Z,20.20
2018-01-22T12:15:17.167Z,17.47
2018-01-22T12:17:45.114Z,17.60
2018-01-22T12:20:13.027Z,15.50
2018-01-22T12:22:41.139Z,14.83
2018-01-22T12:25:09.217Z,17.70
2018-01-22T12:27:37.259Z,15.37
2018-01-22T12:30:06.088Z,15.77
2018-01-22T12:32:34.010Z,15.93
2018-01-22T12:35:01.961Z,15.73
2018-01-22T12:37:30.141Z,13.60
2018-01-22T12:39:58.095Z,14.13
2018-01-22T12:42:26.017Z,13.33
2018-01-22T12:44:54.819Z,13.90
2018-01-22T12:47:22.761Z,15.43
2018-01-22T12:49:51.458Z,13.03
2018-01-22T12:52:20.253Z,14.63
2018-01-22T12:54:48.932Z,13.40
2018-01-22T12:57:17.721Z,11.83
2018-01-22T12:59:46.497Z,14.60
2018-01-22T13:02:14.431Z,13.20
2018-01-22T13:04:42.365Z,14.17
2018-01-22T13:07:10.488Z,16.53
2018-01-22T13:09:38.427Z,16.43
2018-01-22T13:12:06.362Z,17.37
2018-01-22T13:14:35.311Z,15.37
2018-01-22T13:17:03.289Z,15.67
2018-01-22T13:19:31.353Z,14.00
2018-01-22T13:21:59.400Z,15.07
2018-01-22T13:24:27.315Z,13.60
2018-01-22T13:26:55.326Z,16.17
2018-01-22T13:29:23.405Z,18.63
2018-01-22T13:31:51.349Z,15.27
2018-01-22T13:34:20.054Z,15.40
2018-01-22T13:36:48.909Z,21.37
2018-01-22T13:39:16.841Z,16.20
2018-01-22T13:41:44.790Z,15.73
2018-01-22T13:44:12.853Z,11.10
2018-01-22T13:46:41.601Z,12.40
2018-01-22T13:49:09.668Z,13.23
2018-01-22T13:51:37.736Z,12.33
2018-01-22T13:54:05.661Z,14.13
2018-01-22T13:56:33.663Z,16.60
2018-01-22T13:59:01.711Z,16.63
2018-01-22T14:01:29.657Z,14.10
2018-01-22T14:03:58.306Z,13.90
2018-01-22T14:06:26.403Z,16.83
2018-01-22T14:08:54.378Z,13.70
2018-01-22T14:11:22.300Z,13.53
2018-01-22T14:13:50.391Z,11.50
2018-01-22T14:16:18.457Z,12.00
2018-01-22T14:18:46.371Z,14.30
2018-01-22T14:21:15.263Z,11.17
2018-01-22T14:23:43.941Z,11.37
2018-01-22T14:26:12.103Z,11.07
2018-01-22T14:28:40.299Z,12.93
2018-01-22T14:31:08.969Z,10.53
2018-01-22T14:33:36.899Z,11.90
2018-01-22T14:36:04.889Z,15.80
2018-01-22T14:38:32.822Z,19.47
2018-01-22T14:41:00.790Z,14.37
2018-01-22T14:43:28.853Z,12.07
2018-01-22T14:45:57.509Z,10.73
2018-01-22T14:48:25.445Z,11.40
2018-01-22T14:50:53.541Z,11.07
2018-01-22T14:53:21.491Z,10.87
2018-01-22T14:55:49.414Z,10.33
2018-01-22T14:58:18.210Z,10.30
2018-01-22T15:00:46.925Z,9.33
2018-01-22T15:03:14.869Z,9.33
2018-01-22T15:05:43.659Z,10.07
2018-01-22T15:08:12.319Z,9.93
2018-01-22T15:10:40.269Z,12.20
2018-01-22T15:13:08.350Z,9.73
2018-01-22T15:15:36.293Z,10.90
2018-01-22T15:18:04.343Z,10.47
2018-01-22T15:20:32.773Z,11.80
2018-01-22T15:23:00.695Z,12.20
2018-01-22T15:25:28.692Z,10.67
2018-01-22T15:27:56.958Z,12.03
2018-01-22T15:30:24.927Z,12.40
2018-01-22T15:32:52.887Z,12.43
2018-01-22T15:35:20.951Z,10.80
2018-01-22T15:37:48.884Z,12.57
2018-01-22T15:40:16.791Z,12.50
2018-01-22T15:42:44.910Z,11.00
2018-01-22T15:45:12.862Z,11.83
2018-01-22T15:47:40.827Z,13.43
2018-01-22T15:50:09.036Z,12.97
2018-01-22T15:52:38.232Z,11.37
2018-01-22T15:55:06.171Z,10.87
2018-01-22T15:57:34.300Z,11.53
2018-01-22T16:00:03.203Z,12.27
2018-01-22T16:02:31.928Z,11.50
2018-01-22T16:05:00.056Z,10.10
2018-01-22T16:07:28.807Z,13.67
2018-01-22T16:09:56.797Z,12.03
2018-01-22T16:12:25.823Z,10.60
2018-01-22T16:14:53.790Z,12.37
2018-01-22T16:17:22.564Z,13.90
2018-01-22T16:19:51.768Z,12.63
2018-01-22T16:22:20.810Z,11.60
2018-01-22T16:24:48.950Z,12.70
2018-01-22T16:27:17.889Z,13.70
2018-01-22T16:29:45.936Z,12.60
2018-01-22T16:32:15.768Z,12.20
2018-01-22T16:34:44.012Z,12.33
2018-01-22T16:37:14.400Z,11.87
2018-01-22T16:39:43.193Z,12.00
2018-01-22T16:42:11.305Z,11.50
2018-01-22T16:44:39.452Z,11.97
2018-01-22T16:47:14.037Z,14.00
2018-01-22T16:49:42.083Z,12.37
2018-01-22T16:52:10.123Z,12.77
2018-01-22T16:54:39.969Z,12.53
2018-01-22T16:57:08.929Z,13.20
2018-01-22T16:59:37.794Z,10.90
2018-01-22T17:02:05.990Z,11.50
2018-01-22T17:04:33.994Z,11.30
2018-01-22T17:07:02.081Z,12.80
2018-01-22T17:09:30.227Z,11.77
2018-01-22T17:11:58.937Z,15.17
2018-01-22T17:14:26.899Z,14.53
2018-01-22T17:16:55.060Z,13.87
2018-01-22T17:19:23.756Z,16.30
2018-01-22T17:21:52.597Z,18.80
2018-01-22T17:24:20.802Z,13.87
2018-01-22T17:26:48.843Z,13.00
2018-01-22T17:29:16.760Z,13.00
2018-01-22T17:31:45.539Z,13.27
2018-01-22T17:34:14.221Z,18.67
2018-01-22T17:36:42.292Z,29.90
2018-01-22T17:39:10.379Z,30.67
2018-01-22T17:41:39.060Z,29.00
2018-01-22T17:44:08.483Z,19.70
2018-01-22T17:46:36.608Z,15.23
2018-01-22T17:49:04.647Z,16.50
2018-01-22T17:51:32.570Z,14.97
2018-01-22T17:54:00.638Z,12.37
2018-01-22T17:56:28.639Z,12.80
2018-01-22T17:58:57.271Z,14.40
2018-01-22T18:01:25.358Z,13.63
2018-01-22T18:03:53.258Z,13.57
2018-01-22T18:06:22.006Z,13.70
2018-01-22T18:08:50.043Z,13.00
2018-01-22T18:11:17.968Z,13.87
2018-01-22T18:13:47.219Z,12.70
2018-01-22T18:16:15.326Z,13.30
2018-01-22T18:18:43.272Z,12.90
2018-01-22T18:21:11.207Z,12.00
2018-01-22T18:23:41.707Z,13.67
2018-01-22T18:26:11.017Z,12.10
2018-01-22T18:28:40.289Z,13.67
2018-01-22T18:31:08.373Z,12.70
2018-01-22T18:33:36.300Z,12.87
2018-01-22T18:36:04.317Z,12.57
2018-01-22T18:38:32.434Z,11.90
2018-01-22T18:41:00.359Z,12.70
2018-01-22T18:43:28.297Z,11.97
2018-01-22T18:45:56.523Z,11.73
2018-01-22T18:48:24.474Z,11.97
2018-01-22T18:50:52.387Z,14.27
2018-01-22T18:53:21.183Z,10.30
2018-01-22T18:55:49.099Z,12.53
2018-01-22T18:58:17.040Z,12.43
2018-01-22T19:00:45.141Z,12.43
2018-01-22T19:03:13.093Z,12.30
2018-01-22T19:05:41.031Z,11.80
2018-01-22T19:08:09.089Z,11.60
2018-01-22T19:10:37.801Z,11.20
2018-01-22T19:13:05.741Z,12.50
2018-01-22T19:15:34.526Z,13.07
2018-01-22T19:18:03.210Z,13.97
2018-01-22T19:20:31.161Z,14.10
2018-01-22T19:22:59.243Z,12.23
2018-01-22T19:25:27.311Z,12.43
2018-01-22T19:27:55.277Z,11.70
2018-01-22T19:30:23.383Z,10.80
2018-01-22T19:32:52.053Z,16.07
2018-01-22T19:35:20.037Z,14.17
2018-01-22T19:37:48.955Z,12.97
2018-01-22T19:40:16.895Z,13.57
2018-01-22T19:42:45.554Z,12.63
2018-01-22T19:45:13.616Z,15.77
2018-01-22T19:47:41.541Z,14.37
2018-01-22T19:50:10.200Z,12.40
2018-01-22T19:52:38.253Z,13.50
2018-01-22T19:55:06.195Z,13.80
2018-01-22T19:57:34.200Z,12.90
2018-01-22T20:00:02.285Z,14.40
2018-01-22T20:02:30.240Z,11.20
2018-01-22T20:04:58.131Z,13.07
2018-01-22T20:07:26.180Z,13.93
2018-01-22T20:09:54.145Z,12.67
2018-01-22T20:12:22.099Z,14.90
2018-01-22T20:14:50.163Z,15.10
2018-01-22T20:17:18.158Z,16.37
2018-01-22T20:19:46.096Z,14.57
2018-01-22T20:22:14.145Z,15.47
2018-01-22T20:24:42.857Z,15.17
2018-01-22T20:27:10.981Z,14.53
2018-01-22T20:29:39.051Z,14.30
2018-01-22T20:32:06.979Z,14.73
2018-01-22T20:34:34.895Z,14.30
2018-01-22T20:37:03.174Z,15.20
2018-01-22T20:39:31.252Z,13.63
2018-01-22T20:42:00.427Z,13.80
2018-01-22T20:44:28.459Z,14.23
2018-01-22T20:46:56.481Z,14.23
2018-01-22T20:49:24.411Z,14.40
2018-01-22T20:51:52.477Z,14.40
2018-01-22T20:54:20.398Z,16.70
2018-01-22T20:56:48.428Z,14.37
2018-01-22T20:59:16.487Z,12.57
2018-01-22T21:01:44.419Z,14.47
2018-01-22T21:04:12.361Z,14.27
2018-01-22T21:06:40.489Z,13.70
2018-01-22T21:09:08.403Z,15.50
2018-01-22T21:11:36.350Z,13.53
2018-01-22T21:14:04.397Z,12.80
2018-01-22T21:16:33.091Z,14.50
2018-01-22T21:19:01.022Z,13.87
2018-01-22T21:21:29.069Z,14.77
2018-01-22T21:23:57.025Z,13.53
2018-01-22T21:26:24.985Z,13.70
2018-01-22T21:28:53.170Z,13.13
2018-01-22T21:31:21.089Z,13.83
2018-01-22T21:33:49.023Z,14.70
2018-01-22T21:36:17.113Z,14.83
2018-01-22T21:38:45.055Z,13.07
2018-01-22T21:41:13.026Z,15.10
2018-01-22T21:43:41.071Z,13.53
2018-01-22T21:46:08.995Z,14.43
2018-01-22T21:48:36.941Z,13.70
2018-01-22T21:51:05.015Z,13.40
2018-01-22T21:53:32.962Z,11.93
2018-01-22T21:56:00.888Z,12.43
2018-01-22T21:58:28.964Z,11.40
2018-01-22T22:00:56.912Z,11.87
2018-01-22T22:03:24.873Z,12.63
2018-01-22T22:05:52.949Z,13.10
2018-01-22T22:08:20.870Z,13.90
2018-01-22T22:10:49.541Z,15.60
2018-01-22T22:13:18.345Z,12.83
2018-01-22T22:15:47.007Z,12.93
2018-01-22T22:18:14.906Z,12.73
2018-01-22T22:20:43.713Z,10.23
2018-01-22T22:23:11.657Z,12.47
2018-01-22T22:25:40.331Z,11.73
2018-01-22T22:28:09.123Z,11.90
2018-01-22T22:30:37.928Z,11.63
2018-01-22T22:33:06.595Z,12.00
2018-01-22T22:35:34.667Z,12.50
2018-01-22T22:38:02.589Z,12.43
2018-01-22T22:40:30.544Z,11.83
2018-01-22T22:42:58.594Z,14.67
2018-01-22T22:45:27.257Z,11.77
2018-01-22T22:47:55.213Z,11.90
2018-01-22T22:50:23.394Z,10.63
2018-01-22T22:52:51.339Z,12.60
2018-01-22T22:55:19.282Z,11.80
2018-01-22T22:57:47.396Z,12.00
2018-01-22T23:00:15.380Z,11.37
2018-01-22T23:02:43.284Z,11.57
2018-01-22T23:05:12.059Z,12.20
2018-01-22T23:07:40.747Z,13.67
2018-01-22T23:10:09.397Z,11.50
2018-01-22T23:12:37.467Z,12.60
2018-01-22T23:15:05.401Z,12.53
2018-01-22T23:17:33.327Z,11.20
2018-01-22T23:20:01.399Z,13.17
2018-01-22T23:22:29.311Z,11.37
2018-01-22T23:24:57.233Z,10.90
2018-01-22T23:27:25.309Z,12.97
2018-01-22T23:29:53.261Z,12.30
2018-01-22T23:32:21.303Z,12.90
2018-01-22T23:34:49.497Z,12.83
2018-01-22T23:37:17.473Z,12.63
2018-01-22T23:39:45.386Z,12.90
2018-01-22T23:42:14.255Z,11.70
2018-01-22T23:44:42.175Z,12.47
2018-01-22T23:47:10.173Z,10.77
2018-01-22T23:49:38.219Z,11.93
2018-01-22T23:52:06.421Z,12.83
2018-01-22T23:54:34.339Z,13.60
2018-01-22T23:57:03.229Z,12.90
2018-01-22T23:59:31.977Z,11.97
